Time;durP1;ratioP1;P1;durP2;ratioP2;P2;SDS_P1;SDS_P2;PMS_P1;PMS_P2;Temp;Humidity;BMP_temperature;BMP_pressure;BME280_temperature;BME280_humidity;BME280_pressure;Samples;Min_cycle;Max_cycle;Signal;HPM_P1;HPM_P2
2021/12/03 00:02:03;;;;;;;11.38;4.30;;;;;;;-1.00;84.97;99351.34;5007172;28;20035;-70
2021/12/03 00:04:28;;;;;;;10.73;5.43;;;;;;;-1.06;84.65;99343.81;4999011;28;20036;-70
2021/12/03 00:06:55;;;;;;;12.82;4.75;;;;;;;-1.14;85.57;99351.81;4998199;28;20042;-69
2021/12/03 00:09:20;;;;;;;9.05;4.90;;;;;;;-1.24;86.16;99348.69;5000089;28;20517;-69
2021/12/03 00:11:46;;;;;;;13.50;5.50;;;;;;;-1.29;86.30;99350.59;4996255;28;20042;-68
2021/12/03 00:14:11;;;;;;;13.10;5.68;;;;;;;-1.32;86.96;99376.41;5007178;28;20399;-70
2021/12/03 00:16:36;;;;;;;11.60;5.80;;;;;;;-1.35;86.64;99384.22;4987443;28;20172;-68
2021/12/03 00:19:02;;;;;;;13.75;5.82;;;;;;;-1.36;86.80;99381.72;4988625;28;20362;-69
2021/12/03 00:21:27;;;;;;;15.80;5.95;;;;;;;-1.40;87.09;99386.09;4998843;28;20046;-69
2021/12/03 00:23:53;;;;;;;12.88;6.05;;;;;;;-1.42;87.58;99384.47;5005290;28;20158;-67
2021/12/03 00:26:19;;;;;;;14.93;6.28;;;;;;;-1.47;87.19;99387.19;4998873;28;20117;-68
2021/12/03 00:28:45;;;;;;;17.77;6.88;;;;;;;-1.49;87.65;99383.81;4990457;28;20405;-68
2021/12/03 00:31:11;;;;;;;16.65;6.30;;;;;;;-1.51;87.31;99386.47;4987287;28;20659;-67
2021/12/03 00:33:36;;;;;;;17.90;6.95;;;;;;;-1.49;88.14;99383.81;5002355;28;20022;-68
2021/12/03 00:36:05;;;;;;;13.65;6.00;;;;;;;-1.61;88.05;99382.50;5008020;28;20100;-69
2021/12/03 00:38:38;;;;;;;17.00;6.47;;;;;;;-1.64;88.14;99382.59;5024577;28;20358;-69
2021/12/03 00:41:08;;;;;;;17.40;6.90;;;;;;;-1.51;88.00;99391.59;4987678;28;20045;-69
2021/12/03 00:43:34;;;;;;;13.45;7.05;;;;;;;-1.44;87.63;99393.97;5000431;28;20132;-70
2021/12/03 00:46:05;;;;;;;19.30;7.10;;;;;;;-1.42;87.76;99402.47;4993334;28;20420;-70
2021/12/03 00:48:30;;;;;;;15.98;7.10;;;;;;;-1.41;87.26;99407.53;5000860;28;20475;-69
2021/12/03 00:50:56;;;;;;;14.93;6.50;;;;;;;-1.41;87.35;99404.13;5000647;28;20093;-68
2021/12/03 00:53:21;;;;;;;19.17;6.95;;;;;;;-1.31;86.75;99400.38;4989670;28;20045;-70
2021/12/03 00:55:47;;;;;;;11.10;6.35;;;;;;;-1.24;85.95;99400.13;5005455;28;20037;-69
2021/12/03 00:58:12;;;;;;;14.05;5.55;;;;;;;-1.18;85.37;99403.41;4995494;28;20042;-69
2021/12/03 01:00:37;;;;;;;10.57;5.10;;;;;;;-1.22;85.49;99389.81;4995343;28;20145;-68
2021/12/03 01:03:03;;;;;;;13.00;5.93;;;;;;;-1.20;84.95;99400.88;5009938;28;20459;-69
2021/12/03 01:05:29;;;;;;;12.45;5.95;;;;;;;-1.29;85.56;99396.03;4963678;28;1017916;-68
2021/12/03 01:07:54;;;;;;;10.48;5.10;;;;;;;-1.34;85.42;99397.91;4997382;28;20083;-69
2021/12/03 01:10:20;;;;;;;12.60;6.18;;;;;;;-1.36;85.74;99397.97;5004485;28;20120;-68
2021/12/03 01:12:45;;;;;;;13.60;7.00;;;;;;;-1.32;85.98;99401.28;4987731;28;20484;-69
2021/12/03 01:15:15;;;;;;;12.48;6.47;;;;;;;-1.28;85.66;99405.44;4988507;28;20392;-69
2021/12/03 01:17:40;;;;;;;15.13;6.72;;;;;;;-1.28;86.02;99395.97;5002776;28;20043;-69
2021/12/03 01:20:08;;;;;;;12.20;6.88;;;;;;;-1.30;85.97;99387.50;4995631;28;20038;-68
2021/12/03 01:22:34;;;;;;;12.57;6.13;;;;;;;-1.36;86.14;99392.84;5006822;28;20044;-70
2021/12/03 01:24:59;;;;;;;18.00;6.47;;;;;;;-1.36;86.29;99394.56;4994973;28;20031;-69
2021/12/03 01:27:25;;;;;;;10.82;5.28;;;;;;;-1.35;86.56;99388.53;5000609;28;20053;-68
2021/12/03 01:29:50;;;;;;;11.18;5.90;;;;;;;-1.43;86.62;99391.34;5000784;28;20176;-69
2021/12/03 01:32:15;;;;;;;13.00;5.32;;;;;;;-1.52;86.95;99386.47;4988406;28;20168;-69
2021/12/03 01:34:41;;;;;;;10.35;5.32;;;;;;;-1.62;87.65;99378.25;5003750;28;20269;-69
2021/12/03 01:37:06;;;;;;;11.00;5.38;;;;;;;-1.66;88.04;99379.25;5008767;28;20045;-69
2021/12/03 01:39:32;;;;;;;12.32;5.47;;;;;;;-1.73;88.38;99381.16;5011620;28;20466;-67
2021/12/03 01:41:57;;;;;;;11.88;5.53;;;;;;;-1.77;88.92;99391.59;5009197;28;20033;-68
2021/12/03 01:44:22;;;;;;;13.43;6.15;;;;;;;-1.75;88.98;99388.06;5011160;28;20041;-68
2021/12/03 01:46:47;;;;;;;10.68;5.60;;;;;;;-1.76;88.90;99393.25;5007757;28;20034;-67
2021/12/03 01:49:14;;;;;;;12.55;6.30;;;;;;;-1.78;88.95;99400.16;5013651;28;20333;-68
2021/12/03 01:51:40;;;;;;;10.95;5.78;;;;;;;-1.85;88.84;99394.41;4993718;28;20140;-70
2021/12/03 01:54:06;;;;;;;14.35;6.75;;;;;;;-1.85;88.86;99398.69;5008768;28;20026;-68
2021/12/03 01:56:31;;;;;;;10.65;5.60;;;;;;;-1.85;88.67;99409.81;5000550;28;20479;-68
2021/12/03 01:58:56;;;;;;;12.80;5.03;;;;;;;-1.80;88.16;99413.06;5009747;28;20470;-70
2021/12/03 02:01:25;;;;;;;8.80;5.07;;;;;;;-1.83;87.95;99413.16;5015237;28;20048;-69
2021/12/03 02:03:53;;;;;;;11.80;5.38;;;;;;;-1.80;87.65;99414.78;5003787;28;20031;-69
2021/12/03 02:06:19;;;;;;;11.18;5.07;;;;;;;-1.80;87.18;99413.06;5013526;28;20021;-69
2021/12/03 02:08:45;;;;;;;12.50;4.82;;;;;;;-1.74;86.62;99417.19;4998286;28;20038;-69
2021/12/03 02:11:11;;;;;;;13.63;4.50;;;;;;;-1.79;86.65;99421.63;5006471;28;20044;-69
2021/12/03 02:13:37;;;;;;;9.00;4.30;;;;;;;-1.77;86.13;99420.69;5012325;28;20041;-69
2021/12/03 02:16:04;;;;;;;8.88;4.47;;;;;;;-1.77;85.89;99418.13;5001184;28;20053;-69
2021/12/03 02:18:29;;;;;;;10.13;4.60;;;;;;;-1.76;86.24;99429.22;5003594;28;20092;-69
2021/12/03 02:20:58;;;;;;;9.77;4.78;;;;;;;-1.74;86.08;99417.19;5000844;28;20102;-69
2021/12/03 02:23:25;;;;;;;10.67;5.47;;;;;;;-1.75;86.38;99421.47;5011065;28;20076;-69
2021/12/03 02:25:51;;;;;;;9.52;5.07;;;;;;;-1.72;86.12;99420.53;4992418;28;20037;-69
2021/12/03 02:28:18;;;;;;;10.52;4.40;;;;;;;-1.73;86.25;99418.88;5013219;28;20406;-68
2021/12/03 02:30:45;;;;;;;10.65;4.15;;;;;;;-1.73;86.62;99429.97;4996679;28;20026;-68
2021/12/03 02:33:11;;;;;;;8.70;4.32;;;;;;;-1.76;86.62;99424.94;5009349;28;20447;-68
2021/12/03 02:35:40;;;;;;;10.70;4.75;;;;;;;-1.74;86.92;99436.00;4990892;28;20625;-67
2021/12/03 02:38:05;;;;;;;11.18;4.20;;;;;;;-1.72;86.85;99426.50;5000134;28;20452;-67
2021/12/03 02:40:30;;;;;;;12.85;4.45;;;;;;;-1.64;86.60;99433.16;5007826;28;20042;-68
2021/12/03 02:42:56;;;;;;;9.38;4.78;;;;;;;-1.59;86.66;99427.00;4998772;28;20249;-68
2021/12/03 02:45:22;;;;;;;7.72;4.43;;;;;;;-1.60;86.75;99432.16;5009419;28;20447;-67
2021/12/03 02:47:47;;;;;;;8.98;4.47;;;;;;;-1.64;86.93;99435.72;5004429;28;20037;-68
2021/12/03 02:50:14;;;;;;;7.47;4.03;;;;;;;-1.60;86.97;99433.00;5008782;28;20045;-69
2021/12/03 02:52:40;;;;;;;14.32;4.82;;;;;;;-1.60;87.08;99438.13;5009776;28;20061;-68
2021/12/03 02:55:07;;;;;;;10.02;4.00;;;;;;;-1.57;86.74;99456.03;5002767;28;20026;-68
2021/12/03 02:57:32;;;;;;;11.77;4.28;;;;;;;-1.57;86.87;99448.31;5005132;28;20048;-69
2021/12/03 02:59:58;;;;;;;10.80;4.32;;;;;;;-1.59;86.49;99457.00;5002588;28;20061;-69
2021/12/03 03:02:23;;;;;;;7.32;3.75;;;;;;;-1.60;87.12;99447.56;5001379;28;20686;-68
2021/12/03 03:04:49;;;;;;;9.02;4.68;;;;;;;-1.61;87.11;99445.91;5010572;28;20050;-69
2021/12/03 03:07:14;;;;;;;8.27;4.45;;;;;;;-1.60;87.24;99448.41;5007406;28;20038;-69
2021/12/03 03:09:43;;;;;;;11.95;5.18;;;;;;;-1.58;86.93;99444.09;4999149;28;20053;-69
2021/12/03 03:12:09;;;;;;;10.10;4.35;;;;;;;-1.58;86.97;99454.38;5005259;28;20538;-69
2021/12/03 03:14:35;;;;;;;11.18;4.50;;;;;;;-1.58;86.43;99443.25;5011733;28;20121;-68
2021/12/03 03:17:01;;;;;;;7.75;3.95;;;;;;;-1.55;86.53;99445.72;4993119;28;20077;-69
2021/12/03 03:19:26;;;;;;;15.60;4.78;;;;;;;-1.45;85.68;99439.38;5005624;28;20133;-69
2021/12/03 03:21:51;;;;;;;10.25;4.40;;;;;;;-1.47;85.65;99441.19;4997241;28;20128;-69
2021/12/03 03:24:17;;;;;;;10.98;4.05;;;;;;;-1.50;85.78;99438.69;5008866;28;20105;-69
2021/12/03 03:26:45;;;;;;;10.77;4.00;;;;;;;-1.55;85.73;99430.31;5010605;28;20398;-68
2021/12/03 03:29:16;;;;;;;9.70;4.55;;;;;;;-1.55;85.76;99432.88;5005142;28;20522;-69
2021/12/03 03:31:41;;;;;;;11.60;4.65;;;;;;;-1.57;85.74;99434.63;5011093;28;20072;-70
2021/12/03 03:34:08;;;;;;;12.27;4.95;;;;;;;-1.60;86.07;99430.44;5000874;28;20050;-70
2021/12/03 03:36:36;;;;;;;12.20;5.18;;;;;;;-1.62;85.97;99434.78;5012159;28;20080;-69
2021/12/03 03:39:03;;;;;;;11.45;4.20;;;;;;;-1.66;86.24;99434.94;5001862;28;20021;-68
2021/12/03 03:41:29;;;;;;;11.05;4.95;;;;;;;-1.76;86.74;99431.81;5007869;28;20106;-68
2021/12/03 03:43:54;;;;;;;12.68;5.50;;;;;;;-1.80;86.85;99443.06;4993220;28;20388;-68
2021/12/03 03:46:20;;;;;;;8.77;4.70;;;;;;;-1.86;87.03;99436.38;5001531;28;20035;-68
2021/12/03 03:48:45;;;;;;;14.32;5.53;;;;;;;-1.84;87.03;99442.31;5003908;28;20484;-69
2021/12/03 03:51:11;;;;;;;11.48;6.00;;;;;;;-1.89;87.16;99430.47;5004983;28;20117;-69
2021/12/03 03:53:38;;;;;;;12.95;5.53;;;;;;;-1.95;87.41;99437.50;5013163;28;20052;-68
2021/12/03 03:56:05;;;;;;;12.18;5.47;;;;;;;-1.98;87.50;99441.88;5000148;28;20037;-69
2021/12/03 03:58:30;;;;;;;11.13;5.47;;;;;;;-2.03;87.54;99436.88;5008432;28;20123;-68
2021/12/03 04:00:56;;;;;;;10.05;5.47;;;;;;;-2.07;87.85;99439.59;5002071;28;20045;-67
2021/12/03 04:03:21;;;;;;;15.88;5.35;;;;;;;-2.14;88.17;99444.06;5011225;28;20394;-67
2021/12/03 04:05:46;;;;;;;12.25;4.95;;;;;;;-2.14;87.73;99441.50;5033594;22;20087;-88
2021/12/03 04:08:12;;;;;;;9.95;4.50;;;;;;;-2.11;87.79;99450.81;5052459;28;20063;-88
2021/12/03 04:10:37;;;;;;;10.25;5.18;;;;;;;-2.09;87.13;99451.63;5038183;28;20037;-87
2021/12/03 04:13:05;;;;;;;8.75;5.00;;;;;;;-2.07;87.24;99449.88;5049922;28;20033;-89
2021/12/03 04:15:37;;;;;;;17.95;4.80;;;;;;;-2.08;87.07;99454.13;5059374;28;20023;-88
2021/12/03 04:18:03;;;;;;;12.43;5.57;;;;;;;-2.08;87.30;99461.00;5053458;28;20025;-88
2021/12/03 04:20:31;;;;;;;10.13;4.10;;;;;;;-2.06;86.80;99466.94;5052034;28;20049;-89
2021/12/03 04:23:15;;;;;;;10.48;4.90;;;;;;;-2.05;86.67;99476.31;5039955;28;20103;-89
2021/12/03 04:25:43;;;;;;;11.70;4.85;;;;;;;-2.08;86.85;99476.41;5040956;28;20075;-88
2021/12/03 04:28:16;;;;;;;10.25;4.20;;;;;;;-2.09;86.58;99483.28;5068259;28;20077;-90
2021/12/03 04:30:42;;;;;;;14.43;4.97;;;;;;;-2.08;86.60;99487.53;5051505;28;20500;-89
2021/12/03 04:33:18;;;;;;;16.02;4.50;;;;;;;-2.04;86.28;99483.13;5052934;28;20017;-88
2021/12/03 04:35:49;;;;;;;11.18;4.13;;;;;;;-2.05;86.15;99490.00;5049825;28;20068;-89
2021/12/03 04:38:17;;;;;;;9.52;4.40;;;;;;;-2.09;86.44;99492.72;5054015;28;20048;-88
2021/12/03 04:40:43;;;;;;;11.38;4.22;;;;;;;-2.16;86.56;99499.75;5054731;28;20036;-88
2021/12/03 04:43:09;;;;;;;10.48;4.20;;;;;;;-2.18;86.82;99495.56;5053069;28;20056;-87
2021/12/03 04:45:40;;;;;;;12.77;4.22;;;;;;;-2.20;86.91;99501.53;5051065;28;20035;-90
2021/12/03 04:48:11;;;;;;;8.27;3.53;;;;;;;-2.17;86.66;99497.22;5060303;28;20025;-88
2021/12/03 04:50:44;;;;;;;11.05;4.22;;;;;;;-2.14;86.48;99499.72;5052015;28;20044;-87
2021/12/03 04:53:13;;;;;;;8.70;3.67;;;;;;;-2.15;86.55;99505.72;5044045;28;20473;-87
2021/12/03 04:55:39;;;;;;;11.45;3.83;;;;;;;-2.16;86.46;99501.47;5051907;28;20137;-88
2021/12/03 04:58:05;;;;;;;10.27;3.63;;;;;;;-2.15;86.57;99503.16;5053006;28;20045;-88
2021/12/03 05:00:37;;;;;;;9.05;3.30;;;;;;;-2.13;86.32;99497.09;5053156;28;20047;-87
2021/12/03 05:03:03;;;;;;;9.88;3.35;;;;;;;-2.13;86.80;99498.81;5055906;28;20027;-90
2021/12/03 05:05:35;;;;;;;9.15;3.42;;;;;;;-2.05;86.29;99502.00;5060401;28;20033;-89
2021/12/03 05:08:15;;;;;;;9.52;3.80;;;;;;;-2.02;86.38;99500.19;5034564;28;20042;-88
2021/12/03 05:10:48;;;;;;;10.80;3.22;;;;;;;-1.97;86.01;99497.50;5034756;28;20037;-88
2021/12/03 05:13:20;;;;;;;8.40;3.65;;;;;;;-1.99;86.31;99497.53;5032030;28;20029;-88
2021/12/03 05:15:56;;;;;;;12.57;3.63;;;;;;;-1.95;86.36;99506.84;5028967;28;20605;-87
2021/12/03 05:18:25;;;;;;;6.85;3.00;;;;;;;-1.91;85.82;99507.59;5025016;28;20068;-88
2021/12/03 05:20:58;;;;;;;16.17;5.15;;;;;;;-1.90;85.74;99518.72;5013852;28;20113;-88
2021/12/03 05:23:30;;;;;;;11.25;3.38;;;;;;;-1.91;85.97;99517.88;5030224;28;20025;-87
2021/12/03 05:25:56;;;;;;;11.75;3.25;;;;;;;-1.90;85.98;99529.81;5031349;28;20038;-87
2021/12/03 05:28:22;;;;;;;8.55;3.58;;;;;;;-1.91;85.80;99525.56;5032419;28;20040;-89
2021/12/03 05:30:59;;;;;;;14.63;3.50;;;;;;;-1.89;85.99;99522.94;5023910;28;20037;-85
2021/12/03 05:33:27;;;;;;;10.35;3.50;;;;;;;-1.89;85.81;99528.09;5035732;28;20032;-88
2021/12/03 05:35:58;;;;;;;7.97;2.85;;;;;;;-1.92;85.93;99526.47;5030615;28;20137;-90
2021/12/03 05:38:25;;;;;;;9.57;3.47;;;;;;;-1.89;85.82;99525.53;5031469;28;20118;-87
2021/12/03 05:40:54;;;;;;;10.07;3.47;;;;;;;-1.91;85.83;99528.16;5030029;28;20037;-89
2021/12/03 05:43:20;;;;;;;8.20;4.00;;;;;;;-1.95;85.84;99535.09;5029866;28;20044;-88
2021/12/03 05:45:48;;;;;;;8.23;3.58;;;;;;;-1.93;85.98;99541.91;5014442;28;20034;-87
2021/12/03 05:48:25;;;;;;;11.20;4.28;;;;;;;-1.93;86.19;99545.31;5031269;28;20518;-89
2021/12/03 05:50:54;;;;;;;10.48;3.78;;;;;;;-1.93;85.99;99544.47;5031029;28;20045;-88
2021/12/03 05:53:20;;;;;;;9.60;4.32;;;;;;;-1.99;86.18;99546.34;5032229;28;20049;-87
2021/12/03 05:55:45;;;;;;;12.95;4.10;;;;;;;-1.96;86.31;99548.84;5032278;28;20089;-81
2021/12/03 05:58:16;;;;;;;14.48;4.10;;;;;;;-1.94;86.12;99553.91;5034444;28;20692;-89
2021/12/03 06:00:44;;;;;;;7.07;3.63;;;;;;;-1.88;86.20;99553.75;5035209;28;20048;-83
2021/12/03 06:03:18;;;;;;;7.53;3.92;;;;;;;-1.90;86.17;99555.50;5034510;28;20033;-89
2021/12/03 06:05:53;;;;;;;13.90;4.25;;;;;;;-1.93;86.21;99555.59;5020818;28;20042;-87
2021/12/03 06:08:23;;;;;;;8.25;3.95;;;;;;;-1.96;86.38;99550.56;5030733;28;20056;-88
2021/12/03 06:10:49;;;;;;;13.57;4.55;;;;;;;-1.97;86.17;99551.44;5033133;28;20104;-90
2021/12/03 06:13:18;;;;;;;9.15;4.10;;;;;;;-1.93;85.85;99557.31;5021950;28;20413;-88
2021/12/03 06:15:49;;;;;;;11.50;5.50;;;;;;;-1.98;86.00;99562.59;5025433;28;20038;-89
2021/12/03 06:18:17;;;;;;;11.50;4.88;;;;;;;-2.00;86.12;99561.81;5022027;28;20037;-86
2021/12/03 06:20:45;;;;;;;10.35;4.63;;;;;;;-2.05;86.18;99572.19;5034019;28;20442;-89
2021/12/03 06:23:12;;;;;;;11.10;4.32;;;;;;;-2.03;85.88;99565.28;5034491;28;20120;-88
2021/12/03 06:25:40;;;;;;;13.85;4.78;;;;;;;-2.06;86.08;99567.94;5034769;28;20477;-87
2021/12/03 06:28:09;;;;;;;9.98;4.38;;;;;;;-2.07;85.68;99566.28;5033791;28;20406;-89
2021/12/03 06:30:35;;;;;;;10.18;4.15;;;;;;;-2.10;85.99;99570.66;5029225;28;20086;-89
2021/12/03 06:33:05;;;;;;;11.93;4.10;;;;;;;-2.20;86.47;99576.00;5035553;28;20316;-87
2021/12/03 06:35:33;;;;;;;13.38;4.35;;;;;;;-2.23;86.52;99578.66;5035092;28;20061;-88
2021/12/03 06:38:09;;;;;;;;;;;;;;;;;;;;;
2021/12/03 06:40:42;;;;;;;11.40;4.85;;;;;;;-2.07;86.11;99566.28;5020668;28;20090;-89
2021/12/03 06:43:11;;;;;;;11.70;4.30;;;;;;;-2.10;85.63;99566.34;5034774;28;20040;-87
2021/12/03 06:45:43;;;;;;;14.40;4.75;;;;;;;-2.15;85.70;99568.22;5026280;28;20025;-90
2021/12/03 06:48:16;;;;;;;8.02;3.50;;;;;;;-2.14;85.38;99575.03;5052835;28;20044;-85
2021/12/03 06:50:48;;;;;;;8.00;3.78;;;;;;;-2.16;85.44;99576.78;5043195;28;20100;-86
2021/12/03 06:53:17;;;;;;;11.05;4.50;;;;;;;-2.10;85.41;99565.50;5042191;28;20040;-88
2021/12/03 06:58:16;;;;;;;11.77;4.10;;;;;;;-2.04;85.03;99578.16;5043580;28;20385;-89
2021/12/03 07:00:44;;;;;;;12.60;4.50;;;;;;;-2.04;85.18;99578.16;5045404;28;20049;-89
2021/12/03 07:03:10;;;;;;;7.95;3.80;;;;;;;-2.02;84.64;99578.97;5044509;28;20143;-90
2021/12/03 07:05:51;;;;;;;8.27;4.00;;;;;;;-2.01;84.37;99583.22;5036249;28;20038;-88
2021/12/03 07:08:19;;;;;;;8.00;4.13;;;;;;;-1.96;84.66;99591.66;5028670;28;20040;-88
2021/12/03 07:10:45;;;;;;;10.45;4.35;;;;;;;-1.96;84.61;99592.50;5030839;28;20095;-88
2021/12/03 07:13:30;;;;;;;;;;;;;;;;;;;;;
2021/12/03 07:15:55;;;;;;;12.18;4.13;;;;;;;-1.86;83.54;99597.38;5040831;28;20133;-88
2021/12/03 07:18:33;;;;;;;8.40;3.83;;;;;;;-1.74;84.25;99599.63;5032644;28;20489;-89
2021/12/03 07:21:02;;;;;;;10.30;4.40;;;;;;;-1.67;83.09;99597.72;5016145;28;20061;-90
2021/12/03 07:23:54;;;;;;;8.20;3.55;;;;;;;-1.62;84.04;99603.56;5006106;28;20037;-88
2021/12/03 07:26:25;;;;;;;8.82;3.40;;;;;;;-1.55;83.33;99605.94;5020182;28;20046;-90
2021/12/03 07:28:54;;;;;;;7.53;3.63;;;;;;;-1.55;81.76;99613.63;5024562;28;20501;-87
2021/12/03 07:31:31;;;;;;;11.13;3.03;;;;;;;-1.57;81.68;99606.84;5031951;28;20072;-89
2021/12/03 07:33:59;;;;;;;8.93;3.08;;;;;;;-1.48;81.08;99610.00;5035522;28;20124;-89
2021/12/03 07:36:37;;;;;;;10.10;3.33;;;;;;;-1.48;80.75;99612.56;5033233;28;20029;-89
2021/12/03 07:39:06;;;;;;;6.93;3.58;;;;;;;-1.42;80.36;99616.69;5050667;28;20438;-89
2021/12/03 07:41:40;;;;;;;7.10;2.53;;;;;;;-1.36;79.86;99618.25;5026964;28;20124;-87
2021/12/03 07:44:07;;;;;;;6.60;2.92;;;;;;;-1.29;79.56;99620.59;5031749;28;20302;-88
2021/12/03 07:46:36;;;;;;;8.13;3.58;;;;;;;-1.26;79.20;99620.50;5025727;28;20026;-88
2021/12/03 07:49:03;;;;;;;5.38;2.20;;;;;;;-1.20;78.52;99614.34;5031370;28;20041;-88
2021/12/03 07:51:28;;;;;;;11.00;2.80;;;;;;;-1.17;78.60;99623.69;5032883;28;20033;-87
2021/12/03 07:53:54;;;;;;;9.65;3.30;;;;;;;-1.18;78.61;99616.88;5038153;28;20367;-88
2021/12/03 07:56:19;;;;;;;6.05;2.58;;;;;;;-1.13;77.68;99626.13;5026060;28;20140;-89
2021/12/03 07:58:45;;;;;;;8.07;3.08;;;;;;;-1.07;78.04;99627.69;5033725;28;20045;-90
2021/12/03 08:01:10;;;;;;;6.22;2.38;;;;;;;-1.05;76.98;99631.03;5047258;28;20106;-87
2021/12/03 08:03:36;;;;;;;8.52;2.72;;;;;;;-1.02;76.82;99634.34;5023562;28;20022;-89
2021/12/03 08:06:13;;;;;;;8.07;3.08;;;;;;;-0.95;76.39;99640.16;5030926;28;20029;-88
2021/12/03 08:08:39;;;;;;;4.68;2.03;;;;;;;-0.94;75.87;99638.44;5027265;28;20037;-87
2021/12/03 08:11:13;;;;;;;5.57;2.35;;;;;;;-0.82;74.72;99643.19;5032550;28;20034;-88
2021/12/03 08:13:38;;;;;;;7.55;2.10;;;;;;;-0.78;74.77;99643.06;5035984;28;20516;-89
2021/12/03 08:16:04;;;;;;;4.00;1.70;;;;;;;-0.78;74.87;99649.94;5038310;28;20148;-88
2021/12/03 08:18:33;;;;;;;9.15;2.67;;;;;;;-0.78;74.95;99647.34;5033770;28;20395;-88
2021/12/03 08:21:03;;;;;;;7.15;1.92;;;;;;;-0.78;74.12;99644.78;5030901;28;20457;-89
2021/12/03 08:23:32;;;;;;;6.00;1.75;;;;;;;-0.77;74.73;99656.78;5027268;28;20055;-86
2021/12/03 08:26:00;;;;;;;7.82;2.35;;;;;;;-0.81;75.17;99657.75;5015404;28;20037;-87
2021/12/03 08:28:28;;;;;;;6.35;2.00;;;;;;;-0.85;74.63;99648.47;5025456;28;20108;-88
2021/12/03 08:30:53;;;;;;;4.72;1.88;;;;;;;-0.85;74.83;99645.88;5032581;28;20044;-89
2021/12/03 08:33:21;;;;;;;5.80;1.83;;;;;;;-0.86;74.96;99649.31;5031937;28;20021;-88
2021/12/03 08:35:47;;;;;;;5.00;1.87;;;;;;;-0.86;74.44;99651.91;5022571;28;20402;-88
2021/12/03 08:38:29;;;;;;;5.20;1.63;;;;;;;-0.86;74.78;99651.91;5025849;28;20317;-86
2021/12/03 08:41:01;;;;;;;5.82;1.77;;;;;;;-0.85;74.83;99649.28;5033569;28;20131;-87
2021/12/03 08:43:27;;;;;;;6.90;2.08;;;;;;;-0.84;74.76;99645.00;5048017;28;20452;-86
2021/12/03 08:45:55;;;;;;;7.15;1.90;;;;;;;-0.83;75.24;99644.94;5050608;28;20053;-88
2021/12/03 08:48:26;;;;;;;5.50;1.92;;;;;;;-0.79;74.93;99650.81;5030101;28;20017;-89
2021/12/03 08:56:33;;;;;;;6.45;1.90;;;;;;;-0.69;75.84;99662.53;5031354;28;20040;-87
2021/12/03 08:58:59;;;;;;;6.95;2.22;;;;;;;-0.68;75.47;99668.50;5031794;28;20045;-89
2021/12/03 09:01:29;;;;;;;6.85;2.05;;;;;;;-0.64;75.75;99667.53;5033968;28;20033;-89
2021/12/03 09:03:57;;;;;;;5.97;2.17;;;;;;;-0.62;75.58;99673.47;5025586;28;20037;-89
2021/12/03 09:06:23;;;;;;;6.60;1.83;;;;;;;-0.58;74.40;99675.06;5030071;28;20404;-89
2021/12/03 09:09:36;;;;;;;6.75;1.90;;;;;;;-0.43;72.60;99674.59;5034632;28;20036;-91
2021/12/03 09:12:03;;;;;;;4.88;1.73;;;;;;;-0.33;72.00;99680.28;4990691;28;20125;-89
2021/12/03 09:23:03;;;;;;;7.32;1.83;;;;;;;-0.16;71.74;99682.31;5001900;28;20076;-88
2021/12/03 09:25:36;;;;;;;5.43;2.00;;;;;;;-0.16;71.46;99692.59;5011290;28;20130;-88
2021/12/03 09:28:07;;;;;;;5.93;2.42;;;;;;;-0.12;70.67;99674.41;4996464;28;20030;-88
2021/12/03 09:30:37;;;;;;;9.50;2.03;;;;;;;-0.07;70.58;99684.59;5010400;28;20066;-87
2021/12/03 09:33:18;;;;;;;5.15;2.05;;;;;;;-0.01;69.49;99692.09;5012884;28;20030;-88
2021/12/03 09:35:50;;;;;;;7.07;2.20;;;;;;;0.03;69.80;99683.38;4991049;28;20041;-87
2021/12/03 09:38:19;;;;;;;5.45;1.63;;;;;;;0.05;69.36;99686.75;4996983;28;20119;-85
2021/12/03 09:40:54;;;;;;;4.18;1.70;;;;;;;0.07;69.10;99684.94;5007090;28;20145;-89
2021/12/03 09:43:22;;;;;;;4.72;1.65;;;;;;;0.10;69.71;99684.84;5008229;28;20027;-87
2021/12/03 09:46:03;;;;;;;8.43;1.85;;;;;;;0.12;69.23;99685.66;5017298;28;20038;-89
2021/12/03 09:57:02;;;;;;;5.22;2.42;;;;;;;0.24;70.16;99689.53;5033388;28;20076;-89
2021/12/03 10:02:53;;;;;;;4.70;2.40;;;;;;;0.30;70.50;99683.31;5044502;28;20128;-88
2021/12/03 10:16:04;;;;;;;8.52;2.63;;;;;;;0.35;71.51;99651.34;5038917;28;20095;-89
2021/12/03 10:18:53;;;;;;;7.85;2.47;;;;;;;0.39;71.11;99654.66;5031019;28;20033;-89
2021/12/03 10:30:19;;;;;;;;;;;;;;;;;;;;;
2021/12/03 10:50:06;;;;;;;8.85;2.30;;;;;;;0.68;70.56;99641.53;5033225;28;20049;-89
2021/12/03 10:52:52;;;;;;;4.80;2.33;;;;;;;0.71;70.92;99628.53;5032358;28;20101;-87
2021/12/03 10:58:23;;;;;;;7.70;2.22;;;;;;;0.81;71.09;99617.84;5017935;28;20452;-89
2021/12/03 11:07:02;;;;;;;6.15;2.75;;;;;;;0.89;70.69;99598.63;5036283;28;20026;-89
2021/12/03 11:13:11;;;;;;;10.90;2.90;;;;;;;0.87;71.03;99600.41;5039143;28;20040;-87
2021/12/03 11:43:33;;;;;;;7.88;3.00;;;;;;;1.18;70.34;99575.97;4974730;28;20034;-89
2021/12/03 12:19:38;;;;;;;8.45;3.15;;;;;;;1.84;69.57;99537.06;5007855;28;20044;-90
2021/12/03 12:23:25;;;;;;;5.35;2.80;;;;;;;1.93;69.52;99521.16;5011873;28;20261;-90
2021/12/03 12:32:33;;;;;;;14.00;4.18;;;;;;;2.25;68.35;99516.28;5017802;28;20121;-89
2021/12/03 12:34:49;;;;;;;8.43;3.03;;;;;;;2.25;67.91;99518.88;5020325;28;20119;-90
2021/12/03 12:45:56;;;;;;;7.05;2.75;;;;;;;2.35;67.60;99510.63;5042879;28;20112;-90
2021/12/03 13:20:16;;;;;;;8.18;3.40;;;;;;;2.59;67.87;99493.13;4937775;29;20496;-90
2021/12/03 13:56:58;;;;;;;12.77;4.38;;;;;;;2.44;69.17;99480.91;5036044;28;20465;-89
2021/12/03 13:59:38;;;;;;;6.22;3.63;;;;;;;2.43;69.77;99479.22;5021131;28;20114;-90
2021/12/03 14:44:40;;;;;;;13.35;5.00;;;;;;;1.85;73.17;99490.47;5037412;28;20172;-89
2021/12/03 14:52:46;;;;;;;8.52;3.78;;;;;;;1.89;73.13;99489.44;5037834;28;20133;-89
2021/12/03 14:55:29;;;;;;;6.47;3.63;;;;;;;1.93;73.04;99490.97;5028223;28;20052;-89
2021/12/03 14:58:07;;;;;;;7.75;2.97;;;;;;;1.99;74.42;99478.69;5039481;28;20045;-90
2021/12/03 15:00:46;;;;;;;7.25;3.60;;;;;;;2.04;73.86;99480.16;5038996;28;20032;-88
2021/12/03 15:12:03;;;;;;;12.73;4.40;;;;;;;2.16;73.49;99466.66;5046163;28;20134;-89
2021/12/03 15:25:30;;;;;;;7.38;4.00;;;;;;;2.03;73.55;99472.47;5053478;28;20121;-86
2021/12/03 15:31:15;;;;;;;8.65;3.83;;;;;;;1.97;74.21;99465.84;4974979;28;20127;-89
2021/12/03 15:36:45;;;;;;;13.27;4.07;;;;;;;1.97;73.68;99462.41;5016596;28;20040;-88
2021/12/03 15:39:37;;;;;;;8.73;3.85;;;;;;;1.94;73.44;99463.38;5019641;28;20091;-85
2021/12/03 16:03:47;;;;;;;11.13;4.63;;;;;;;1.59;74.75;99439.09;5049913;28;20033;-88
2021/12/03 16:06:49;;;;;;;8.95;4.40;;;;;;;1.57;74.55;99435.75;5051915;28;20039;-87
2021/12/03 16:09:35;;;;;;;9.63;4.63;;;;;;;1.57;74.69;99444.34;5024351;28;20068;-86
2021/12/03 16:12:09;;;;;;;7.75;4.28;;;;;;;1.53;74.92;99434.22;5067961;28;20056;-89
2021/12/03 16:14:57;;;;;;;12.82;4.82;;;;;;;1.49;75.25;99441.25;5049300;28;20033;-89
2021/12/03 16:17:52;;;;;;;8.00;4.10;;;;;;;1.43;75.38;99442.34;5035998;28;20049;-89
2021/12/03 16:20:48;;;;;;;7.88;4.40;;;;;;;1.41;75.43;99451.91;5034507;28;20048;-88
2021/12/03 16:23:29;;;;;;;11.00;4.72;;;;;;;1.36;75.54;99445.25;5036190;28;20038;-89
2021/12/03 16:51:26;;;;;;;10.45;4.10;;;;;;;1.03;77.44;99417.38;5033984;28;20493;-88
2021/12/03 16:53:56;;;;;;;14.82;4.65;;;;;;;1.07;77.29;99415.50;5034747;28;20045;-89
2021/12/03 16:56:26;;;;;;;9.82;4.13;;;;;;;1.09;77.08;99419.72;5043278;28;20413;-88
2021/12/03 16:59:00;;;;;;;9.63;4.72;;;;;;;1.12;76.75;99417.00;5035065;28;20048;-88
2021/12/03 17:04:15;;;;;;;10.55;4.78;;;;;;;1.17;76.45;99396.16;5040628;28;20104;-86
2021/12/03 17:12:39;;;;;;;13.70;4.93;;;;;;;1.19;75.58;99400.34;5035007;28;20464;-89
2021/12/03 17:27:21;;;;;;;8.98;3.95;;;;;;;1.29;74.38;99398.19;5032860;28;20051;-89
2021/12/03 17:48:43;;;;;;;11.82;3.40;;;;;;;1.32;73.20;99402.41;5033248;28;20079;-89
2021/12/03 17:56:26;;;;;;;5.75;3.15;;;;;;;1.29;73.04;99376.69;5027381;28;20052;-88
2021/12/03 18:01:48;;;;;;;6.95;3.08;;;;;;;1.32;72.77;99387.72;5034978;28;20405;-86
2021/12/03 18:07:07;;;;;;;8.25;3.35;;;;;;;1.29;72.97;99374.13;5026682;28;20048;-88
2021/12/03 18:09:49;;;;;;;7.70;3.33;;;;;;;1.27;72.40;99369.03;5033988;28;20382;-88
2021/12/03 18:46:51;;;;;;;5.43;2.92;;;;;;;1.18;74.87;99294.53;5028976;28;20037;-89
2021/12/03 18:51:59;;;;;;;7.78;3.15;;;;;;;1.17;74.86;99287.72;5036138;28;20021;-88
2021/12/03 18:54:32;;;;;;;8.55;2.75;;;;;;;1.15;75.15;99272.31;5008259;28;20434;-91
2021/12/03 18:57:25;;;;;;;4.85;2.75;;;;;;;1.16;75.07;99265.41;5012194;28;20033;-92